createdAt,value
2022-11-05T00:00:19.581Z,7.32
2022-11-05T00:03:04.789Z,8.10
2022-11-05T00:05:50.586Z,6.90
2022-11-05T00:08:36.003Z,9.43
2022-11-05T00:11:02.742Z,6.60
2022-11-05T00:13:47.951Z,9.02
2022-11-05T00:16:46.930Z,10.52
2022-11-05T00:19:15.026Z,9.98
2022-11-05T00:22:00.083Z,8.93
2022-11-05T00:24:45.586Z,10.57
2022-11-05T00:27:12.208Z,7.78
2022-11-05T00:29:38.780Z,10.68
2022-11-05T00:32:05.476Z,11.13
2022-11-05T00:34:32.110Z,10.88
2022-11-05T00:36:58.760Z,10.07
2022-11-05T00:39:25.390Z,11.00
2022-11-05T00:42:12.003Z,9.10
2022-11-05T00:44:57.171Z,8.00
2022-11-05T00:47:42.783Z,10.57
2022-11-05T00:50:10.872Z,7.88
2022-11-05T00:52:56.323Z,9.65
2022-11-05T00:55:24.526Z,10.57
2022-11-05T00:57:51.574Z,11.20
2022-11-05T01:00:18.610Z,11.02
2022-11-05T01:02:45.696Z,9.23
2022-11-05T01:05:13.597Z,9.38
2022-11-05T01:07:40.419Z,11.20
2022-11-05T01:10:07.332Z,10.13
2022-11-05T01:12:34.052Z,11.32
2022-11-05T01:15:00.832Z,11.18
2022-11-05T01:17:27.553Z,12.07
2022-11-05T01:19:54.065Z,10.85
2022-11-05T01:22:20.546Z,12.18
2022-11-05T01:24:46.985Z,11.70
2022-11-05T01:27:13.558Z,10.30
2022-11-05T01:29:40.205Z,9.80
2022-11-05T01:32:06.742Z,10.63
2022-11-05T01:34:33.308Z,7.28
2022-11-05T01:36:59.886Z,12.05
2022-11-05T01:39:26.410Z,12.82
2022-11-05T01:41:52.945Z,10.63
2022-11-05T01:44:48.033Z,11.38
2022-11-05T01:47:29.728Z,8.40
2022-11-05T01:50:00.419Z,8.13
2022-11-05T01:52:29.557Z,9.07
2022-11-05T01:54:56.716Z,6.57
2022-11-05T01:57:23.643Z,6.45
2022-11-05T01:59:55.421Z,5.95
2022-11-05T02:02:25.262Z,6.72
2022-11-05T02:04:57.608Z,6.00
2022-11-05T02:07:26.824Z,7.80
2022-11-05T02:10:09.280Z,7.78
2022-11-05T02:12:38.678Z,7.10
2022-11-05T02:15:06.853Z,8.93
2022-11-05T02:17:54.937Z,9.38
2022-11-05T02:20:32.546Z,7.90
2022-11-05T02:23:17.274Z,9.25
2022-11-05T02:25:55.901Z,7.28
2022-11-05T02:28:34.597Z,7.28
2022-11-05T02:31:10.194Z,6.45
2022-11-05T02:34:02.355Z,8.80
2022-11-05T02:36:43.326Z,9.27
2022-11-05T02:39:25.478Z,8.45
2022-11-05T02:42:02.039Z,8.07
2022-11-05T02:44:56.751Z,6.97
2022-11-05T02:47:45.592Z,9.13
2022-11-05T02:50:24.297Z,5.20
2022-11-05T02:53:02.188Z,7.50
2022-11-05T02:55:28.631Z,8.55
2022-11-05T02:57:55.326Z,7.68
2022-11-05T03:00:40.142Z,6.25
2022-11-05T03:03:30.771Z,7.20
2022-11-05T03:06:23.494Z,8.25
2022-11-05T03:09:20.598Z,7.13
2022-11-05T03:12:13.036Z,8.07
2022-11-05T03:15:11.390Z,6.13
2022-11-05T03:18:08.446Z,8.00
2022-11-05T03:20:47.394Z,5.25
2022-11-05T03:23:16.884Z,7.18
2022-11-05T03:25:49.399Z,7.40
2022-11-05T03:28:21.146Z,8.02
2022-11-05T03:30:50.075Z,7.55
2022-11-05T03:33:22.203Z,7.03
2022-11-05T03:35:54.010Z,6.60
2022-11-05T03:38:27.027Z,10.57
2022-11-05T03:40:57.077Z,10.95
2022-11-05T03:43:30.446Z,9.63
2022-11-05T03:46:09.683Z,12.27
2022-11-05T03:48:41.655Z,9.23
2022-11-05T03:51:18.837Z,13.02
2022-11-05T03:53:51.942Z,11.07
2022-11-05T03:56:25.024Z,8.93
2022-11-05T03:58:58.723Z,14.57
2022-11-05T04:01:26.552Z,13.15
2022-11-05T04:03:53.398Z,10.85
2022-11-05T04:06:38.565Z,13.40
2022-11-05T04:09:23.303Z,13.38
2022-11-05T04:12:08.127Z,14.68
2022-11-05T04:14:34.834Z,15.18
2022-11-05T04:17:07.335Z,13.32
2022-11-05T04:20:00.112Z,12.35
2022-11-05T04:22:47.219Z,10.90
2022-11-05T04:25:14.837Z,12.68
2022-11-05T04:27:41.456Z,12.48
2022-11-05T04:30:20.851Z,8.10
2022-11-05T04:33:06.892Z,9.82
2022-11-05T04:35:36.549Z,10.98
2022-11-05T04:40:30.789Z,12.77
2022-11-05T04:42:58.423Z,10.13
2022-11-05T04:45:27.089Z,10.13
2022-11-05T04:47:53.699Z,12.15
2022-11-05T04:50:22.366Z,10.80
2022-11-05T04:52:49.019Z,13.82
2022-11-05T04:55:15.567Z,12.38
2022-11-05T04:57:42.069Z,13.13
2022-11-05T05:00:09.775Z,12.35
2022-11-05T05:02:36.746Z,12.38
2022-11-05T05:05:04.018Z,13.20
2022-11-05T05:07:30.722Z,11.65
2022-11-05T05:09:57.252Z,10.13
2022-11-05T05:12:23.822Z,13.20
2022-11-05T05:14:50.386Z,13.27
2022-11-05T05:17:17.006Z,13.32
2022-11-05T05:20:02.207Z,11.52
2022-11-05T05:22:28.872Z,12.00
2022-11-05T05:24:56.680Z,13.70
2022-11-05T05:27:24.458Z,11.27
2022-11-05T05:29:50.999Z,10.65
2022-11-05T05:32:17.465Z,11.60
2022-11-05T05:34:44.395Z,12.60
2022-11-05T05:37:10.911Z,10.60
2022-11-05T05:39:37.456Z,11.93
2022-11-05T05:42:04.159Z,10.50
2022-11-05T05:44:30.720Z,11.65
2022-11-05T05:46:57.310Z,11.65
2022-11-05T05:49:23.940Z,11.25
2022-11-05T05:51:50.451Z,10.82
2022-11-05T05:54:17.276Z,11.43
2022-11-05T05:56:44.468Z,9.52
2022-11-05T05:59:11.842Z,11.15
2022-11-05T06:01:38.530Z,12.35
2022-11-05T06:04:05.569Z,11.55
2022-11-05T06:06:32.159Z,10.85
2022-11-05T06:08:58.919Z,11.02
2022-11-05T06:11:25.791Z,10.75
2022-11-05T06:13:52.359Z,6.95
2022-11-05T06:16:21.418Z,11.43
2022-11-05T06:18:47.953Z,10.02
2022-11-05T06:21:16.804Z,10.90
2022-11-05T06:23:45.250Z,7.28
2022-11-05T06:26:17.413Z,8.63
2022-11-05T06:28:44.424Z,10.45
2022-11-05T06:31:12.469Z,10.80
2022-11-05T06:33:40.095Z,10.52
2022-11-05T06:36:08.701Z,11.00
2022-11-05T06:38:36.832Z,9.75
2022-11-05T06:41:09.009Z,9.98
2022-11-05T06:43:37.288Z,10.20
2022-11-05T06:46:04.459Z,10.27
2022-11-05T06:48:31.082Z,10.38
2022-11-05T06:50:57.900Z,11.30
2022-11-05T06:53:24.644Z,10.48
2022-11-05T06:55:51.187Z,8.75
2022-11-05T06:58:17.685Z,10.23
2022-11-05T07:00:45.050Z,10.13
2022-11-05T07:03:12.766Z,10.98
2022-11-05T07:05:43.999Z,9.85
2022-11-05T07:08:10.517Z,11.05
2022-11-05T07:10:37.106Z,10.30
2022-11-05T07:13:08.079Z,10.15
2022-11-05T07:15:35.618Z,10.25
2022-11-05T07:18:02.241Z,10.68
2022-11-05T07:20:33.455Z,10.10
2022-11-05T07:23:10.443Z,10.13
2022-11-05T07:25:37.594Z,11.65
2022-11-05T07:28:04.873Z,9.38
2022-11-05T07:30:32.890Z,9.70
2022-11-05T07:32:59.650Z,10.65
2022-11-05T07:35:26.472Z,11.40
2022-11-05T07:37:54.545Z,9.93
2022-11-05T07:40:22.817Z,10.57
2022-11-05T07:42:51.617Z,10.40
2022-11-05T07:45:18.575Z,8.13
2022-11-05T07:47:49.704Z,10.13
2022-11-05T07:50:20.896Z,9.50
2022-11-05T07:52:48.739Z,10.73
2022-11-05T07:55:16.114Z,6.95
2022-11-05T07:57:50.884Z,9.48
2022-11-05T08:00:20.723Z,9.30
2022-11-05T08:03:08.165Z,10.30
2022-11-05T08:05:40.530Z,8.40
2022-11-05T08:08:09.181Z,8.68
2022-11-05T08:10:36.911Z,8.30
2022-11-05T08:13:04.304Z,10.73
2022-11-05T08:15:31.389Z,8.57
2022-11-05T08:18:03.264Z,8.18
2022-11-05T08:20:30.892Z,9.77
2022-11-05T08:22:57.851Z,8.48
2022-11-05T08:25:24.895Z,9.57
2022-11-05T08:27:58.511Z,9.50
2022-11-05T08:30:25.567Z,7.63
2022-11-05T08:32:57.472Z,7.72
2022-11-05T08:35:24.201Z,8.25
2022-11-05T08:37:50.690Z,7.95
2022-11-05T08:40:17.310Z,8.23
2022-11-05T08:42:43.891Z,5.55
2022-11-05T08:45:10.504Z,8.50
2022-11-05T08:47:36.986Z,7.20
2022-11-05T08:50:04.736Z,3.53
2022-11-05T08:52:31.198Z,7.47
2022-11-05T08:54:57.710Z,7.57
2022-11-05T08:57:24.189Z,5.00
2022-11-05T08:59:50.707Z,6.60
2022-11-05T09:02:17.363Z,7.15
2022-11-05T09:04:44.704Z,7.43
2022-11-05T09:07:11.294Z,7.75
2022-11-05T09:09:37.802Z,7.53
2022-11-05T09:12:13.116Z,7.60
2022-11-05T09:14:39.818Z,6.97
2022-11-05T09:20:53.255Z,6.75
2022-11-05T09:23:20.156Z,7.45
2022-11-05T09:25:46.911Z,7.35
2022-11-05T09:28:20.389Z,7.90
2022-11-05T09:30:51.973Z,6.57
2022-11-05T09:33:21.924Z,6.88
2022-11-05T09:35:48.811Z,7.00
2022-11-05T09:38:15.464Z,5.82
2022-11-05T09:40:58.282Z,6.78
2022-11-05T09:43:35.404Z,6.82
2022-11-05T09:46:20.228Z,6.47
2022-11-05T09:48:52.289Z,7.07
2022-11-05T09:51:23.946Z,6.57
2022-11-05T09:53:51.687Z,5.93
2022-11-05T09:56:28.545Z,6.00
2022-11-05T18:38:33.699Z,8.18
2022-11-05T18:41:06.214Z,8.35
2022-11-05T18:43:33.084Z,7.72
2022-11-05T18:45:59.676Z,7.93
2022-11-05T18:48:26.124Z,7.63
2022-11-05T18:50:55.437Z,8.10
2022-11-05T18:53:24.228Z,7.55
2022-11-05T18:55:50.893Z,7.80
2022-11-05T18:58:17.325Z,6.78
2022-11-05T19:00:43.941Z,7.18
2022-11-05T19:03:10.709Z,8.02
2022-11-05T19:05:37.242Z,9.02
2022-11-05T19:08:03.862Z,8.00
2022-11-05T19:10:30.416Z,8.55
2022-11-05T19:12:57.039Z,8.38
2022-11-05T19:15:23.678Z,8.38
2022-11-05T19:17:50.353Z,8.55
2022-11-05T19:20:17.032Z,8.55
2022-11-05T19:22:43.536Z,8.80
2022-11-05T19:25:10.166Z,9.02
2022-11-05T19:27:37.628Z,8.55
2022-11-05T19:30:05.928Z,9.02
2022-11-05T19:32:32.533Z,9.80
2022-11-05T19:34:59.130Z,10.27
2022-11-05T19:37:25.815Z,10.48
2022-11-05T19:39:52.444Z,9.35
2022-11-05T19:42:19.035Z,11.02
2022-11-05T19:44:45.671Z,11.25
2022-11-05T19:47:12.263Z,10.40
2022-11-05T19:49:38.999Z,11.80
2022-11-05T19:52:06.690Z,12.48
2022-11-05T19:54:35.581Z,11.60
2022-11-05T19:57:02.181Z,12.25
2022-11-05T19:59:28.703Z,12.43
2022-11-05T20:01:55.443Z,13.00
2022-11-05T20:04:22.123Z,12.45
2022-11-05T20:06:51.175Z,12.93
2022-11-05T20:09:22.601Z,14.45
2022-11-05T20:11:52.464Z,13.10
2022-11-05T20:14:19.131Z,13.13
2022-11-05T20:16:46.694Z,16.98
2022-11-05T20:19:17.076Z,14.95
2022-11-05T20:21:44.546Z,14.43
2022-11-05T20:24:13.303Z,13.93
2022-11-05T20:26:41.012Z,13.45
2022-11-05T20:29:07.726Z,14.52
2022-11-05T20:31:34.373Z,14.68
2022-11-05T20:34:00.980Z,14.55
2022-11-05T20:36:27.680Z,15.38
2022-11-05T20:38:56.642Z,16.27
2022-11-05T20:41:23.746Z,17.27
2022-11-05T20:43:51.041Z,14.75
2022-11-05T20:46:19.832Z,14.13
2022-11-05T20:48:46.802Z,13.00
2022-11-05T20:51:16.201Z,15.20
2022-11-05T20:56:20.347Z,15.07
2022-11-05T20:58:47.502Z,15.68
2022-11-05T21:01:16.525Z,15.00
2022-11-05T21:03:44.544Z,15.60
2022-11-05T21:06:11.740Z,13.45
2022-11-05T21:08:38.872Z,14.63
2022-11-05T21:11:06.900Z,14.05
2022-11-05T21:13:36.013Z,13.73
2022-11-05T21:16:06.215Z,14.05
2022-11-05T21:18:35.315Z,13.18
2022-11-05T21:21:14.194Z,14.43
2022-11-05T21:23:41.779Z,12.95
2022-11-05T21:26:11.006Z,13.63
2022-11-05T21:28:39.384Z,13.48
2022-11-05T21:31:07.628Z,11.43
2022-11-05T21:33:34.666Z,13.20
2022-11-05T21:36:10.060Z,13.45
2022-11-05T21:38:36.915Z,12.57
2022-11-05T21:41:05.749Z,13.70
2022-11-05T21:43:32.524Z,12.68
2022-11-05T21:46:03.900Z,15.93
2022-11-05T21:48:31.334Z,15.75
2022-11-05T21:51:16.516Z,15.52
2022-11-05T21:54:01.713Z,12.10
2022-11-05T21:56:47.013Z,15.40
2022-11-05T21:59:34.807Z,13.38
2022-11-05T22:02:02.144Z,16.25
2022-11-05T22:04:33.986Z,14.02
2022-11-05T22:07:00.830Z,14.77
2022-11-05T22:09:27.602Z,13.45
2022-11-05T22:11:54.759Z,16.77
2022-11-05T22:14:21.821Z,16.10
2022-11-05T22:16:48.746Z,13.00
2022-11-05T22:19:15.348Z,13.30
2022-11-05T22:21:42.131Z,14.15
2022-11-05T22:24:11.303Z,14.35
2022-11-05T22:26:39.137Z,15.23
2022-11-05T22:29:06.388Z,13.30
2022-11-05T22:31:36.407Z,13.52
2022-11-05T22:34:04.866Z,14.00
2022-11-05T22:36:32.670Z,13.00
2022-11-05T22:38:59.466Z,14.40
2022-11-05T22:41:26.172Z,13.07
2022-11-05T22:43:52.904Z,15.60
2022-11-05T22:46:22.452Z,12.68
2022-11-05T22:48:49.988Z,11.13
2022-11-05T22:51:22.505Z,15.23
2022-11-05T22:53:49.475Z,14.63
2022-11-05T22:56:23.919Z,15.82
2022-11-05T22:58:51.218Z,14.13
2022-11-05T23:01:19.716Z,15.50
2022-11-05T23:03:48.164Z,14.82
2022-11-05T23:06:38.854Z,13.82
2022-11-05T23:09:54.342Z,18.58
2022-11-05T23:12:29.963Z,16.67
2022-11-05T23:14:58.535Z,13.57
2022-11-05T23:17:44.427Z,15.80
2022-11-05T23:20:35.790Z,13.07
2022-11-05T23:23:21.090Z,10.52
2022-11-05T23:25:48.221Z,11.43
2022-11-05T23:28:15.095Z,9.95
2022-11-05T23:31:06.233Z,12.20
2022-11-05T23:33:34.218Z,10.10
2022-11-05T23:36:19.476Z,10.52
2022-11-05T23:38:46.664Z,9.48
2022-11-05T23:41:31.817Z,8.43
2022-11-05T23:44:17.209Z,10.30
2022-11-05T23:47:08.318Z,11.45
2022-11-05T23:49:36.271Z,7.72
2022-11-05T23:52:02.894Z,10.55
2022-11-05T23:54:31.081Z,10.52
2022-11-05T23:56:57.753Z,10.68
2022-11-05T23:59:26.607Z,7.85
